Time;durP1;ratioP1;P1;durP2;ratioP2;P2;SDS_P1;SDS_P2;PMS_P1;PMS_P2;Temp;Humidity;BMP_temperature;BMP_pressure;BME280_temperature;BME280_humidity;BME280_pressure;Samples;Min_cycle;Max_cycle;Signal;HPM_P1;HPM_P2
2021/03/11 00:01:38;;;;;;;58.33;37.45;;;6.20;95.00;;;;;;5000122;28;20847;-57
2021/03/11 00:04:04;;;;;;;50.20;35.92;;;6.20;95.10;;;;;;5003346;28;20050;-57
2021/03/11 00:06:29;;;;;;;50.53;34.85;;;6.20;94.90;;;;;;5000766;28;20128;-55
2021/03/11 00:08:55;;;;;;;53.92;36.78;;;6.30;94.80;;;;;;4982899;28;20046;-55
2021/03/11 00:11:27;;;;;;;57.25;36.40;;;6.20;94.70;;;;;;4990915;28;20865;-58
2021/03/11 00:14:24;;;;;;;55.67;35.58;;;6.20;94.80;;;;;;4981057;28;20065;-59
2021/03/11 00:16:50;;;;;;;44.78;33.55;;;6.30;94.80;;;;;;4999381;28;20046;-58
2021/03/11 00:19:16;;;;;;;48.00;36.13;;;6.30;94.60;;;;;;5001099;28;20072;-57
2021/03/11 00:21:42;;;;;;;50.20;34.60;;;6.30;94.60;;;;;;4987699;28;20530;-56
2021/03/11 00:24:08;;;;;;;47.45;35.13;;;6.30;94.50;;;;;;4988483;28;20046;-54
2021/03/11 00:27:02;;;;;;;47.97;33.72;;;6.30;94.70;;;;;;5003056;28;20113;-56
2021/03/11 00:29:28;;;;;;;47.42;34.00;;;6.30;94.70;;;;;;4982265;28;20105;-53
2021/03/11 00:31:55;;;;;;;53.53;34.88;;;6.30;94.90;;;;;;5006595;28;20050;-56
2021/03/11 00:34:21;;;;;;;46.10;31.83;;;6.30;94.70;;;;;;5000715;28;20062;-56
2021/03/11 00:36:47;;;;;;;45.00;33.78;;;6.30;94.60;;;;;;5002720;28;20530;-56
2021/03/11 00:39:14;;;;;;;46.17;33.60;;;6.30;94.60;;;;;;4994203;28;20049;-55
2021/03/11 00:41:40;;;;;;;46.88;33.83;;;6.30;94.60;;;;;;4999057;28;20046;-58
2021/03/11 00:44:06;;;;;;;49.97;33.05;;;6.30;94.80;;;;;;5002744;28;20061;-55
2021/03/11 00:46:32;;;;;;;47.42;33.15;;;6.30;94.70;;;;;;4998127;28;20054;-57
2021/03/11 00:48:58;;;;;;;46.72;34.08;;;6.30;94.80;;;;;;5002022;28;20049;-54
2021/03/11 00:51:23;;;;;;;49.75;33.50;;;6.40;94.80;;;;;;4994155;28;20531;-56
2021/03/11 00:53:49;;;;;;;53.15;35.17;;;6.30;94.90;;;;;;5002725;28;20461;-55
2021/03/11 00:59:56;;;;;;;55.15;34.03;;;6.30;95.20;;;;;;4986174;28;20093;-57
2021/03/11 01:02:24;;;;;;;54.55;34.90;;;6.20;95.30;;;;;;5000381;28;20467;-58
2021/03/11 01:04:50;;;;;;;57.45;36.83;;;6.20;95.30;;;;;;4997115;28;20189;-58
2021/03/11 01:07:17;;;;;;;49.20;35.10;;;6.30;95.30;;;;;;4987605;28;20057;-56
2021/03/11 01:09:43;;;;;;;50.58;34.72;;;6.30;95.20;;;;;;4990860;28;20062;-58
2021/03/11 01:12:33;;;;;;;50.08;31.92;;;6.30;95.30;;;;;;4986282;28;20058;-58
2021/03/11 01:14:59;;;;;;;49.58;33.28;;;6.30;95.30;;;;;;4968680;28;20050;-54
2021/03/11 01:17:25;;;;;;;46.58;31.52;;;6.30;95.20;;;;;;4988039;28;20124;-58
2021/03/11 01:19:51;;;;;;;43.97;32.75;;;6.30;95.00;;;;;;4982351;28;20042;-58
2021/03/11 01:22:16;;;;;;;45.15;32.05;;;6.40;94.90;;;;;;4994279;28;20512;-55
2021/03/11 01:24:42;;;;;;;36.53;29.25;;;6.40;95.00;;;;;;4993183;28;20057;-56
2021/03/11 01:27:08;;;;;;;41.80;31.20;;;6.50;94.70;;;;;;4993912;28;20054;-58
2021/03/11 01:29:34;;;;;;;41.95;30.30;;;6.50;94.60;;;;;;4998953;28;20042;-58
2021/03/11 01:31:59;;;;;;;42.92;30.23;;;6.40;94.70;;;;;;4988705;28;20087;-57
2021/03/11 01:34:25;;;;;;;42.55;28.90;;;6.50;94.70;;;;;;4992919;28;20053;-58
2021/03/11 01:36:56;;;;;;;45.70;30.45;;;6.50;94.80;;;;;;4995172;28;20475;-58
2021/03/11 01:39:22;;;;;;;48.90;33.33;;;6.40;94.80;;;;;;4979387;28;20193;-55
2021/03/11 01:42:06;;;;;;;47.85;33.45;;;6.40;94.90;;;;;;5004187;28;20153;-58
2021/03/11 01:44:31;;;;;;;44.97;32.17;;;6.50;95.00;;;;;;4968268;28;20927;-57
2021/03/11 01:46:57;;;;;;;42.22;32.03;;;6.50;95.10;;;;;;4989005;28;20054;-61
2021/03/11 01:49:23;;;;;;;45.53;31.17;;;6.40;95.20;;;;;;4990893;28;20054;-60
2021/03/11 01:51:51;;;;;;;52.65;34.53;;;6.50;95.20;;;;;;5000494;28;20437;-55
2021/03/11 01:54:19;;;;;;;50.38;33.10;;;6.40;95.20;;;;;;4998702;28;20053;-60
2021/03/11 01:56:46;;;;;;;45.35;31.90;;;6.40;95.30;;;;;;4997862;28;20054;-59
2021/03/11 01:59:13;;;;;;;49.05;34.72;;;6.40;95.30;;;;;;4994548;28;20524;-59
2021/03/11 02:01:39;;;;;;;47.72;33.20;;;6.40;95.50;;;;;;4994576;28;20057;-57
2021/03/11 02:04:05;;;;;;;49.95;31.60;;;6.40;95.50;;;;;;4970224;28;20058;-60
2021/03/11 02:06:31;;;;;;;49.60;32.90;;;6.40;95.60;;;;;;5004843;28;20415;-59
2021/03/11 02:08:57;;;;;;;46.17;30.63;;;6.40;95.60;;;;;;4999169;28;20112;-60
2021/03/11 02:11:26;;;;;;;47.03;32.83;;;6.40;95.70;;;;;;4996806;28;20053;-56
2021/03/11 02:14:04;;;;;;;46.45;33.20;;;6.50;95.60;;;;;;4997676;28;20061;-58
2021/03/11 02:16:33;;;;;;;45.33;33.42;;;6.50;95.60;;;;;;4999756;28;20093;-61
2021/03/11 02:19:06;;;;;;;51.65;34.63;;;6.50;95.60;;;;;;4995514;28;20402;-59
2021/03/11 02:21:44;;;;;;;48.42;34.47;;;6.50;95.60;;;;;;4986808;28;20045;-59
2021/03/11 02:24:31;;;;;;;51.63;35.55;;;6.40;95.70;;;;;;4985054;28;20042;-59
2021/03/11 02:27:09;;;;;;;47.05;32.40;;;6.50;95.70;;;;;;4977432;28;20045;-60
2021/03/11 02:29:40;;;;;;;53.70;33.95;;;6.50;95.80;;;;;;4996901;28;20179;-60
2021/03/11 02:32:10;;;;;;;49.13;31.90;;;6.50;95.60;;;;;;4983741;28;20085;-57
2021/03/11 02:34:47;;;;;;;44.08;31.17;;;6.50;95.70;;;;;;4984181;28;20056;-57
2021/03/11 02:37:35;;;;;;;43.72;30.63;;;6.50;95.50;;;;;;4976939;28;20051;-59
2021/03/11 02:40:31;;;;;;;43.70;31.77;;;6.50;95.50;;;;;;4974170;28;20054;-58
2021/03/11 02:42:59;;;;;;;42.95;30.92;;;6.50;95.70;;;;;;4925436;29;20102;-61
2021/03/11 02:45:30;;;;;;;43.20;30.27;;;6.50;95.70;;;;;;4940059;29;20519;-64
2021/03/11 02:47:58;;;;;;;48.47;31.73;;;6.50;95.80;;;;;;4927074;28;20059;-65
2021/03/11 02:50:25;;;;;;;50.15;31.20;;;6.50;95.70;;;;;;4942729;28;20162;-58
2021/03/11 02:52:52;;;;;;;45.90;30.88;;;6.50;96.00;;;;;;4917821;29;20047;-59
2021/03/11 02:55:19;;;;;;;52.88;32.97;;;6.50;96.10;;;;;;4937466;29;20070;-61
2021/03/11 02:57:46;;;;;;;51.42;33.25;;;6.50;96.50;;;;;;4933791;29;20106;-62
2021/03/11 03:00:33;;;;;;;56.60;32.22;;;6.50;96.60;;;;;;4938284;29;20047;-57
2021/03/11 03:03:00;;;;;;;47.63;30.88;;;6.50;96.70;;;;;;4940724;29;20099;-61
2021/03/11 03:06:04;;;;;;;45.33;30.83;;;6.50;96.70;;;;;;4940993;29;20058;-55
2021/03/11 03:08:30;;;;;;;56.25;31.65;;;6.50;96.70;;;;;;4923232;29;20056;-58
2021/03/11 03:10:57;;;;;;;48.55;31.70;;;6.50;96.80;;;;;;4924621;29;20048;-57
2021/03/11 03:13:24;;;;;;;47.70;29.60;;;6.50;96.90;;;;;;4937355;29;20067;-59
2021/03/11 03:15:50;;;;;;;45.15;28.88;;;6.60;96.90;;;;;;4927589;29;20506;-59
2021/03/11 03:18:18;;;;;;;47.25;30.52;;;6.60;96.90;;;;;;4927196;29;20127;-61
2021/03/11 03:20:48;;;;;;;48.17;31.02;;;6.60;96.90;;;;;;4957841;28;20076;-56
2021/03/11 03:23:14;;;;;;;39.92;27.52;;;6.60;96.90;;;;;;4981296;28;20179;-60
2021/03/11 03:25:40;;;;;;;44.78;29.27;;;6.60;97.00;;;;;;4983569;28;20547;-60
2021/03/11 03:28:07;;;;;;;43.83;28.15;;;6.60;97.10;;;;;;4980231;28;20120;-57
2021/03/11 03:30:33;;;;;;;42.67;27.25;;;6.60;97.30;;;;;;4963146;28;20636;-59
2021/03/11 03:32:58;;;;;;;42.47;27.75;;;6.60;97.40;;;;;;4977035;28;20076;-59
2021/03/11 03:35:24;;;;;;;39.95;25.73;;;6.70;97.40;;;;;;4964836;28;20051;-58
2021/03/11 03:37:52;;;;;;;44.35;26.90;;;6.70;97.50;;;;;;4968706;28;20041;-58
2021/03/11 03:40:24;;;;;;;43.40;27.88;;;6.60;97.60;;;;;;4970107;28;20039;-58
2021/03/11 03:43:09;;;;;;;40.95;26.33;;;6.70;97.50;;;;;;4965604;28;20043;-58
2021/03/11 03:45:40;;;;;;;42.30;26.35;;;6.70;97.50;;;;;;4997598;28;20057;-56
2021/03/11 03:48:10;;;;;;;38.08;28.10;;;6.70;97.50;;;;;;4991142;28;20908;-54
2021/03/11 03:50:37;;;;;;;35.45;25.13;;;6.80;97.50;;;;;;4969848;28;20101;-56
2021/03/11 03:53:08;;;;;;;36.85;25.80;;;6.80;97.50;;;;;;5003179;28;20045;-53
2021/03/11 03:55:36;;;;;;;39.43;26.57;;;6.80;97.40;;;;;;5004673;28;20053;-52
2021/03/11 03:58:04;;;;;;;37.42;24.13;;;6.80;97.40;;;;;;5006571;28;20073;-54
2021/03/11 04:00:31;;;;;;;32.58;24.25;;;6.90;97.40;;;;;;5003550;28;20136;-50
2021/03/11 04:03:00;;;;;;;32.17;23.40;;;6.90;97.30;;;;;;4984412;28;20050;-55
2021/03/11 04:05:26;;;;;;;36.25;24.85;;;6.90;97.30;;;;;;4992237;28;20045;-49
2021/03/11 04:07:53;;;;;;;31.45;22.45;;;6.90;97.20;;;;;;4987449;28;20132;-53
2021/03/11 04:10:59;;;;;;;33.33;23.30;;;6.90;97.20;;;;;;5003848;28;20054;-50
2021/03/11 04:13:28;;;;;;;28.27;21.13;;;6.90;97.10;;;;;;4990026;28;20116;-51
2021/03/11 04:15:55;;;;;;;32.60;22.38;;;7.00;97.00;;;;;;4990984;28;20054;-54
2021/03/11 04:18:21;;;;;;;31.80;21.55;;;7.00;96.90;;;;;;4988905;28;20054;-50
2021/03/11 04:21:25;;;;;;;27.75;20.45;;;7.00;96.90;;;;;;4995588;28;20122;-49
2021/03/11 04:23:51;;;;;;;29.50;22.27;;;7.10;96.80;;;;;;4989676;28;20046;-48
2021/03/11 04:26:17;;;;;;;30.02;22.17;;;7.10;96.80;;;;;;5001112;28;20053;-51
2021/03/11 04:28:47;;;;;;;33.20;23.60;;;7.10;96.90;;;;;;5004457;28;20049;-48
2021/03/11 04:31:13;;;;;;;36.00;24.98;;;7.10;97.10;;;;;;4992145;28;20120;-47
2021/03/11 04:37:20;;;;;;;27.27;21.67;;;7.10;97.20;;;;;;4992784;28;20738;-52
2021/03/11 04:39:46;;;;;;;31.30;22.83;;;7.20;97.10;;;;;;5001916;28;20130;-53
2021/03/11 04:42:12;;;;;;;32.15;22.85;;;7.20;97.10;;;;;;4990680;28;20188;-53
2021/03/11 04:44:40;;;;;;;26.40;20.67;;;7.30;97.00;;;;;;4983956;28;20058;-49
2021/03/11 04:47:11;;;;;;;28.92;20.88;;;7.30;96.90;;;;;;4994208;28;20558;-52
2021/03/11 04:49:38;;;;;;;25.80;19.83;;;7.30;96.90;;;;;;4989740;28;20145;-53
2021/03/11 04:52:05;;;;;;;27.48;21.80;;;7.30;96.90;;;;;;4987101;28;20113;-50
2021/03/11 04:55:10;;;;;;;22.83;19.10;;;7.40;96.80;;;;;;5002545;28;20512;-48
2021/03/11 04:57:35;;;;;;;27.38;19.92;;;7.40;96.80;;;;;;4990112;28;20086;-50
2021/03/11 05:00:04;;;;;;;28.55;19.30;;;7.40;96.70;;;;;;4997405;28;20801;-50
2021/03/11 05:02:33;;;;;;;22.45;17.85;;;7.40;96.70;;;;;;4993446;28;20495;-54
2021/03/11 05:05:01;;;;;;;21.83;18.67;;;7.50;96.60;;;;;;4988038;28;20054;-50
2021/03/11 05:07:27;;;;;;;23.90;18.50;;;7.50;96.50;;;;;;4986530;28;20050;-51
2021/03/11 05:09:53;;;;;;;23.20;20.08;;;7.50;96.60;;;;;;4984668;28;20054;-48
2021/03/11 05:12:19;;;;;;;21.70;18.20;;;7.60;96.60;;;;;;4969234;28;20149;-49
2021/03/11 05:14:45;;;;;;;22.27;19.05;;;7.60;96.30;;;;;;4996031;28;20061;-51
2021/03/11 05:17:10;;;;;;;23.17;19.35;;;7.60;96.30;;;;;;5004262;28;20081;-46
2021/03/11 05:19:36;;;;;;;20.90;18.15;;;7.60;96.20;;;;;;4997499;28;20513;-49
2021/03/11 05:22:03;;;;;;;22.40;18.67;;;7.60;96.20;;;;;;4975386;28;20069;-52
2021/03/11 05:24:29;;;;;;;22.40;18.80;;;7.70;96.20;;;;;;4969262;28;20058;-51
2021/03/11 05:26:55;;;;;;;21.83;18.17;;;7.60;96.10;;;;;;4990391;28;20046;-51
2021/03/11 05:29:20;;;;;;;22.00;17.80;;;7.70;96.00;;;;;;4986915;28;20054;-53
2021/03/11 05:31:46;;;;;;;22.23;19.23;;;7.70;95.90;;;;;;4989899;28;20082;-53
2021/03/11 05:34:12;;;;;;;24.25;20.45;;;7.70;95.90;;;;;;4996560;28;20144;-52
2021/03/11 05:36:38;;;;;;;24.60;19.42;;;7.70;95.90;;;;;;5000918;28;20050;-51
2021/03/11 05:39:05;;;;;;;23.35;18.95;;;7.80;96.00;;;;;;4989039;28;20601;-52
2021/03/11 05:41:50;;;;;;;25.58;19.95;;;7.80;95.80;;;;;;4972830;28;20057;-52
2021/03/11 05:44:16;;;;;;;22.92;19.48;;;7.90;95.80;;;;;;4986467;28;20077;-49
2021/03/11 05:46:42;;;;;;;22.27;19.52;;;7.90;95.70;;;;;;4990277;28;20091;-49
2021/03/11 05:49:08;;;;;;;24.10;18.75;;;7.90;95.70;;;;;;4991081;28;20049;-54
2021/03/11 05:51:36;;;;;;;22.75;18.27;;;8.00;95.60;;;;;;4981382;28;20081;-53
2021/03/11 05:54:03;;;;;;;23.73;19.63;;;7.90;95.70;;;;;;4976623;28;20046;-55
2021/03/11 05:56:40;;;;;;;27.58;21.35;;;7.90;95.80;;;;;;5000513;28;20088;-52
2021/03/11 05:59:07;;;;;;;26.65;21.23;;;7.90;96.10;;;;;;4992800;28;20052;-55
2021/03/11 06:01:33;;;;;;;30.27;21.67;;;7.90;96.20;;;;;;4979383;28;20124;-52
2021/03/11 06:04:01;;;;;;;29.35;21.55;;;7.90;96.40;;;;;;4968249;28;20050;-51
2021/03/11 06:06:30;;;;;;;28.25;22.60;;;8.00;96.30;;;;;;4984894;28;20046;-54
2021/03/11 06:08:57;;;;;;;24.65;20.08;;;7.90;96.30;;;;;;4993178;28;20382;-54
2021/03/11 06:11:24;;;;;;;29.15;22.67;;;8.00;96.60;;;;;;4989845;28;20050;-53
2021/03/11 06:13:51;;;;;;;28.27;22.73;;;8.00;96.40;;;;;;4983217;28;20042;-52
2021/03/11 06:16:24;;;;;;;31.83;21.80;;;8.00;96.40;;;;;;4979508;28;20177;-56
2021/03/11 06:18:52;;;;;;;31.02;22.63;;;8.00;96.40;;;;;;4993554;28;20042;-55
2021/03/11 06:21:20;;;;;;;27.77;22.25;;;8.00;96.60;;;;;;4966386;28;20089;-56
2021/03/11 06:23:47;;;;;;;26.20;21.95;;;8.00;96.60;;;;;;4977834;28;20075;-56
2021/03/11 06:26:14;;;;;;;30.75;24.25;;;8.10;96.40;;;;;;4981704;28;20065;-51
2021/03/11 06:28:46;;;;;;;27.80;22.83;;;8.10;96.50;;;;;;5000086;28;20048;-54
2021/03/11 06:31:29;;;;;;;34.03;24.48;;;8.10;96.50;;;;;;4998207;28;20042;-56
2021/03/11 06:33:57;;;;;;;34.58;25.30;;;8.10;96.60;;;;;;4997344;28;20129;-56
2021/03/11 06:36:25;;;;;;;31.23;25.05;;;8.10;96.80;;;;;;4997770;28;20057;-53
2021/03/11 06:38:51;;;;;;;32.63;24.50;;;8.20;96.70;;;;;;4983953;28;20197;-53
2021/03/11 06:41:18;;;;;;;29.88;23.83;;;8.20;96.80;;;;;;4981483;28;20123;-53
2021/03/11 06:43:59;;;;;;;33.15;22.83;;;8.20;96.70;;;;;;5001706;28;20065;-54
2021/03/11 06:46:27;;;;;;;24.63;21.33;;;8.30;96.60;;;;;;4994381;28;20159;-53
2021/03/11 06:49:10;;;;;;;21.67;18.38;;;8.30;96.00;;;;;;4994891;28;20129;-53
2021/03/11 06:51:41;;;;;;;20.30;16.90;;;8.50;95.70;;;;;;4995125;28;20046;-51
2021/03/11 06:54:08;;;;;;;22.00;17.38;;;8.60;95.30;;;;;;4977943;28;20578;-57
2021/03/11 06:56:34;;;;;;;23.08;16.55;;;8.70;95.00;;;;;;4992229;28;20358;-50
2021/03/11 06:59:05;;;;;;;21.13;15.63;;;8.70;94.80;;;;;;4975439;28;20121;-50
2021/03/11 07:01:33;;;;;;;17.70;15.65;;;8.80;94.60;;;;;;4992212;28;20046;-52
2021/03/11 07:04:01;;;;;;;18.48;14.43;;;8.80;94.40;;;;;;4994710;28;20048;-60
2021/03/11 07:06:37;;;;;;;16.33;12.82;;;8.80;94.20;;;;;;4993168;28;20054;-47
2021/03/11 07:09:07;;;;;;;17.40;14.50;;;8.80;94.20;;;;;;4990256;28;20054;-57
2021/03/11 07:11:33;;;;;;;16.58;11.77;;;8.90;94.20;;;;;;5043973;23;20080;-56
2021/03/11 07:14:04;;;;;;;16.23;12.40;;;9.00;93.90;;;;;;5020563;28;20038;-55
2021/03/11 07:16:34;;;;;;;44.95;36.28;;;9.20;93.50;;;;;;5018513;28;20119;-57
2021/03/11 07:19:17;;;;;;;20.75;16.40;;;9.30;93.50;;;;;;5021025;28;20065;-50
2021/03/11 07:21:50;;;;;;;15.98;12.68;;;9.30;93.50;;;;;;5014618;28;20045;-58
2021/03/11 07:24:34;;;;;;;16.88;12.63;;;9.40;93.30;;;;;;5023173;28;20077;-50
2021/03/11 07:27:00;;;;;;;14.50;11.13;;;9.50;93.10;;;;;;5019736;28;20096;-50
2021/03/11 07:29:27;;;;;;;16.45;11.93;;;9.50;93.10;;;;;;5014519;28;20092;-50
2021/03/11 07:32:04;;;;;;;17.13;11.65;;;9.70;92.50;;;;;;4977984;28;20101;-52
2021/03/11 07:34:33;;;;;;;16.30;11.30;;;9.80;91.70;;;;;;5020818;28;20041;-50
2021/03/11 07:37:00;;;;;;;25.35;21.13;;;9.90;92.20;;;;;;5024321;28;20073;-48
2021/03/11 07:39:34;;;;;;;21.40;17.27;;;10.00;91.30;;;;;;5025670;28;20140;-54
2021/03/11 07:42:01;;;;;;;18.20;13.13;;;9.90;91.50;;;;;;5022552;28;20041;-50
2021/03/11 07:44:28;;;;;;;14.98;11.77;;;9.70;91.70;;;;;;5020049;28;20477;-48
2021/03/11 07:46:54;;;;;;;14.40;11.40;;;9.60;91.60;;;;;;5019319;28;20509;-49
2021/03/11 07:49:21;;;;;;;15.48;11.07;;;9.60;91.50;;;;;;4981220;28;20046;-61
2021/03/11 07:51:49;;;;;;;17.20;11.57;;;9.60;91.20;;;;;;5016159;28;20150;-52
2021/03/11 07:54:15;;;;;;;14.88;10.93;;;9.50;92.00;;;;;;5005650;28;20154;-49
2021/03/11 07:56:41;;;;;;;14.45;11.43;;;9.60;91.30;;;;;;5022140;28;20664;-47
2021/03/11 07:59:08;;;;;;;14.10;9.85;;;9.60;91.50;;;;;;5015463;28;20053;-51
2021/03/11 08:01:59;;;;;;;14.70;10.75;;;9.70;90.80;;;;;;5014887;28;20800;-47
2021/03/11 08:04:31;;;;;;;17.00;10.60;;;9.80;90.60;;;;;;5014937;28;20052;-46
2021/03/11 08:07:21;;;;;;;20.13;9.13;;;9.80;90.70;;;;;;4994755;28;20049;-52
2021/03/11 08:09:49;;;;;;;13.30;8.32;;;10.00;89.60;;;;;;5002350;28;20085;-50
2021/03/11 08:12:41;;;;;;;31.77;23.05;;;10.00;89.80;;;;;;5012873;28;20056;-49
2021/03/11 08:15:22;;;;;;;25.38;17.25;;;10.00;88.20;;;;;;4995371;28;20057;-47
2021/03/11 08:17:49;;;;;;;17.25;7.60;;;10.00;87.80;;;;;;5018910;28;20149;-46
2021/03/11 08:20:23;;;;;;;16.92;7.15;;;10.10;86.70;;;;;;5018870;28;20077;-44
2021/03/11 08:22:53;;;;;;;16.90;6.55;;;10.00;84.40;;;;;;5013586;28;20042;-46
2021/03/11 08:25:25;;;;;;;19.90;7.57;;;10.00;85.30;;;;;;5020354;28;20091;-48
2021/03/11 08:27:52;;;;;;;19.65;7.00;;;9.90;85.80;;;;;;5024756;28;20064;-45
2021/03/11 08:30:40;;;;;;;16.67;6.88;;;9.80;86.90;;;;;;5003030;28;20402;-49
2021/03/11 08:33:07;;;;;;;18.10;6.22;;;9.90;85.70;;;;;;5013179;28;20096;-46
2021/03/11 08:35:35;;;;;;;20.33;6.97;;;9.90;86.10;;;;;;4997375;28;20427;-44
2021/03/11 08:38:01;;;;;;;22.15;6.63;;;10.00;85.00;;;;;;4999282;28;20078;-43
2021/03/11 08:40:38;;;;;;;23.20;6.32;;;10.10;83.60;;;;;;5010926;28;20045;-56
2021/03/11 08:43:04;;;;;;;16.08;5.78;;;10.10;82.90;;;;;;4992964;28;20093;-57
2021/03/11 08:45:36;;;;;;;20.02;5.57;;;10.20;82.70;;;;;;5017545;28;20061;-48
2021/03/11 08:48:17;;;;;;;28.85;12.88;;;10.30;81.10;;;;;;5007949;28;20128;-49
2021/03/11 08:50:44;;;;;;;27.38;9.02;;;10.40;81.10;;;;;;5019887;28;20057;-47
2021/03/11 08:53:10;;;;;;;27.80;5.93;;;10.30;81.10;;;;;;5006736;28;20060;-45
2021/03/11 08:55:40;;;;;;;25.58;6.88;;;10.30;80.50;;;;;;5026449;28;20045;-56
2021/03/11 08:58:32;;;;;;;26.42;6.22;;;10.30;79.50;;;;;;5017463;28;20410;-48
2021/03/11 09:01:03;;;;;;;21.50;5.45;;;10.30;79.60;;;;;;4954857;28;20557;-48
2021/03/11 09:03:36;;;;;;;27.17;6.80;;;10.30;80.40;;;;;;4951984;28;20051;-48
2021/03/11 09:06:03;;;;;;;25.85;6.75;;;10.30;81.00;;;;;;4964327;28;20063;-48
2021/03/11 09:08:29;;;;;;;25.92;6.15;;;10.30;79.90;;;;;;4962346;28;20096;-54
2021/03/11 09:11:12;;;;;;;23.33;5.97;;;10.40;80.70;;;;;;4967020;28;20938;-55
2021/03/11 09:13:43;;;;;;;30.38;6.95;;;10.40;79.00;;;;;;4962639;28;20916;-54
2021/03/11 09:16:09;;;;;;;29.90;8.10;;;10.40;80.00;;;;;;4962773;28;20095;-58
2021/03/11 09:18:36;;;;;;;35.83;7.75;;;10.50;79.10;;;;;;4962524;28;20108;-48
2021/03/11 09:21:06;;;;;;;26.55;6.30;;;10.50;78.10;;;;;;4964281;28;20149;-47
2021/03/11 09:23:37;;;;;;;22.98;5.75;;;10.70;77.80;;;;;;4963590;28;20047;-53
2021/03/11 09:26:04;;;;;;;23.80;6.63;;;10.80;76.20;;;;;;4962559;28;20058;-47
2021/03/11 09:28:30;;;;;;;29.65;6.90;;;10.80;75.80;;;;;;4963311;28;20047;-47
2021/03/11 09:30:56;;;;;;;26.85;6.65;;;10.90;75.50;;;;;;4963281;28;20555;-47
2021/03/11 09:33:22;;;;;;;28.27;7.38;;;11.00;74.00;;;;;;4961160;28;20183;-52
2021/03/11 09:35:51;;;;;;;27.38;6.53;;;11.00;73.70;;;;;;4946850;28;20063;-52
2021/03/11 09:38:29;;;;;;;31.58;7.00;;;11.00;72.80;;;;;;4994585;28;20136;-49
2021/03/11 09:41:02;;;;;;;27.08;6.55;;;11.10;72.90;;;;;;5023680;28;20085;-52
2021/03/11 09:43:35;;;;;;;27.45;6.80;;;11.40;73.60;;;;;;5020781;28;20060;-55
2021/03/11 09:46:15;;;;;;;33.22;8.43;;;11.80;71.40;;;;;;5020797;28;20038;-47
2021/03/11 09:48:44;;;;;;;24.50;6.50;;;11.60;72.30;;;;;;5013333;28;20044;-51
2021/03/11 09:51:17;;;;;;;27.95;6.90;;;11.40;71.80;;;;;;5016851;28;20049;-46
2021/03/11 09:53:55;;;;;;;25.42;7.30;;;11.30;72.20;;;;;;5013652;28;20406;-51
2021/03/11 09:56:24;;;;;;;29.55;6.60;;;11.10;71.40;;;;;;4996559;28;20203;-49
2021/03/11 09:58:53;;;;;;;28.27;6.30;;;11.10;72.60;;;;;;5016989;28;20103;-46
2021/03/11 10:01:25;;;;;;;29.35;6.68;;;11.10;70.60;;;;;;5016523;28;20075;-46
2021/03/11 10:03:51;;;;;;;28.35;7.35;;;11.10;71.60;;;;;;5011834;28;20047;-45
2021/03/11 10:06:18;;;;;;;21.50;7.22;;;11.10;69.90;;;;;;5017468;28;20666;-48
2021/03/11 10:08:44;;;;;;;37.90;16.15;;;11.10;70.10;;;;;;5009725;28;20049;-46
2021/03/11 10:11:21;;;;;;;36.40;9.25;;;11.10;71.30;;;;;;5019293;28;20820;-48
2021/03/11 10:13:57;;;;;;;28.98;7.32;;;11.00;70.00;;;;;;5011827;28;20056;-58
2021/03/11 10:16:31;;;;;;;35.33;13.50;;;11.00;71.10;;;;;;5010723;28;20138;-46
2021/03/11 10:19:03;;;;;;;27.17;7.18;;;11.00;72.30;;;;;;5004327;28;20716;-47
2021/03/11 10:21:30;;;;;;;29.73;7.65;;;11.00;71.50;;;;;;4993135;28;20406;-41
2021/03/11 10:23:56;;;;;;;38.13;7.05;;;11.00;72.00;;;;;;5012952;28;20045;-42
2021/03/11 10:26:27;;;;;;;28.77;7.07;;;10.90;72.70;;;;;;5011067;28;20052;-53
2021/03/11 10:29:10;;;;;;;32.53;7.50;;;10.80;75.40;;;;;;5012537;28;20795;-52
2021/03/11 10:31:36;;;;;;;36.42;7.78;;;10.70;76.20;;;;;;5015813;28;20056;-47
2021/03/11 10:34:05;;;;;;;34.47;8.20;;;10.60;76.30;;;;;;5015526;28;20559;-57
2021/03/11 10:36:32;;;;;;;32.05;7.57;;;10.30;77.40;;;;;;5012893;28;20167;-43
2021/03/11 10:39:08;;;;;;;30.45;6.95;;;10.00;78.30;;;;;;5010908;28;20046;-53
2021/03/11 10:42:11;;;;;;;28.30;8.13;;;9.80;81.20;;;;;;5013444;28;20044;-53
2021/03/11 10:44:39;;;;;;;39.70;9.23;;;9.60;83.30;;;;;;4906865;29;20451;-49
2021/03/11 10:47:16;;;;;;;34.10;7.85;;;9.50;84.30;;;;;;4918919;29;20055;-47
2021/03/11 10:49:42;;;;;;;35.28;7.50;;;9.00;86.90;;;;;;4912665;29;20054;-53
2021/03/11 10:52:12;;;;;;;33.83;7.70;;;9.00;87.00;;;;;;4913934;29;20550;-52
2021/03/11 10:54:42;;;;;;;30.25;7.03;;;8.80;88.90;;;;;;4901365;29;20505;-55
2021/03/11 10:57:10;;;;;;;31.92;8.50;;;8.70;90.10;;;;;;4917060;29;20048;-50
2021/03/11 10:59:58;;;;;;;30.55;7.82;;;8.60;90.50;;;;;;4919349;29;20055;-50
2021/03/11 11:02:28;;;;;;;28.25;6.70;;;8.60;90.40;;;;;;4914253;28;20083;-52
2021/03/11 11:04:56;;;;;;;38.83;7.50;;;8.60;90.80;;;;;;4923360;28;20452;-64
2021/03/11 11:07:22;;;;;;;40.63;8.43;;;8.50;91.10;;;;;;4918635;29;20064;-48
2021/03/11 11:09:49;;;;;;;33.58;7.75;;;8.50;91.40;;;;;;4921160;29;20052;-56
2021/03/11 11:12:18;;;;;;;31.48;7.35;;;8.50;91.10;;;;;;4913218;29;20220;-48
2021/03/11 11:14:45;;;;;;;29.25;7.55;;;8.60;90.90;;;;;;4907381;29;20512;-54
2021/03/11 11:17:11;;;;;;;39.33;9.90;;;8.50;91.40;;;;;;4915492;28;20735;-50
2021/03/11 11:19:37;;;;;;;33.60;7.32;;;8.50;91.70;;;;;;4939265;28;20084;-52
2021/03/11 11:22:04;;;;;;;47.50;8.60;;;8.40;92.10;;;;;;5012451;28;20557;-50
2021/03/11 11:24:30;;;;;;;39.80;8.48;;;8.40;92.00;;;;;;5017241;28;20114;-52
2021/03/11 11:26:56;;;;;;;36.35;8.45;;;8.40;92.10;;;;;;4998610;28;20490;-54
2021/03/11 11:29:25;;;;;;;30.80;7.47;;;8.40;92.60;;;;;;5002302;28;20057;-56
2021/03/11 11:31:51;;;;;;;42.63;9.32;;;8.40;92.30;;;;;;5019477;28;20041;-47
2021/03/11 11:34:19;;;;;;;38.63;9.40;;;8.30;92.60;;;;;;5015759;28;20569;-54
2021/03/11 11:36:45;;;;;;;45.65;8.52;;;8.40;92.40;;;;;;5014131;28;20099;-54
2021/03/11 11:39:11;;;;;;;47.50;9.38;;;8.30;92.70;;;;;;5016534;28;20046;-50
2021/03/11 11:41:37;;;;;;;38.00;9.20;;;8.30;93.10;;;;;;5015924;28;20574;-53
2021/03/11 11:44:04;;;;;;;41.95;9.43;;;8.30;93.20;;;;;;5008025;28;20057;-51
2021/03/11 11:46:30;;;;;;;34.78;8.63;;;8.20;93.80;;;;;;5015294;28;20046;-52
2021/03/11 11:48:57;;;;;;;29.00;7.85;;;8.20;93.50;;;;;;4994457;28;20575;-48
2021/03/11 11:51:23;;;;;;;43.33;8.93;;;8.20;93.20;;;;;;5015504;28;20045;-59
2021/03/11 11:53:50;;;;;;;29.20;6.20;;;8.20;93.80;;;;;;5008211;28;20506;-53
2021/03/11 11:56:16;;;;;;;29.42;7.13;;;8.00;94.00;;;;;;5010565;28;20049;-55
2021/03/11 11:58:44;;;;;;;37.08;7.93;;;8.00;94.00;;;;;;4995999;28;20569;-51
2021/03/11 12:01:11;;;;;;;36.22;7.55;;;8.10;93.80;;;;;;5017870;28;20050;-56
2021/03/11 12:03:37;;;;;;;28.80;8.15;;;7.90;93.80;;;;;;5012831;28;20045;-56
2021/03/11 12:06:04;;;;;;;36.40;7.82;;;7.90;93.60;;;;;;5015340;28;20552;-58
2021/03/11 12:08:30;;;;;;;35.25;6.63;;;7.90;93.50;;;;;;4994792;28;20061;-53
2021/03/11 12:11:24;;;;;;;27.67;7.90;;;8.00;93.30;;;;;;5016827;28;20053;-49
2021/03/11 12:13:50;;;;;;;33.90;8.13;;;8.00;93.50;;;;;;4993889;28;21350;-52
2021/03/11 12:16:18;;;;;;;31.88;7.30;;;8.00;93.80;;;;;;5014062;28;20041;-57
2021/03/11 12:18:44;;;;;;;27.52;7.30;;;7.90;94.00;;;;;;5019048;28;20056;-51
2021/03/11 12:21:10;;;;;;;46.63;9.20;;;8.00;94.00;;;;;;5000362;28;20065;-56
2021/03/11 12:23:36;;;;;;;33.45;7.47;;;8.00;94.30;;;;;;5016816;28;20049;-54
2021/03/11 12:26:02;;;;;;;36.90;8.65;;;8.00;93.70;;;;;;4994997;28;20037;-52
2021/03/11 12:28:28;;;;;;;39.00;8.57;;;8.00;93.90;;;;;;5021063;28;20045;-55
2021/03/11 12:30:54;;;;;;;41.47;9.13;;;8.10;93.30;;;;;;5023657;28;20056;-55
2021/03/11 12:33:20;;;;;;;49.30;8.85;;;8.20;93.10;;;;;;4997622;28;20045;-55
2021/03/11 12:35:46;;;;;;;28.25;8.10;;;8.20;93.20;;;;;;5014756;28;20080;-59
2021/03/11 12:38:13;;;;;;;34.95;8.07;;;8.20;92.80;;;;;;4994168;28;20050;-52
2021/03/11 12:40:40;;;;;;;40.35;9.35;;;8.30;92.60;;;;;;5015897;28;20053;-50
2021/03/11 12:43:06;;;;;;;37.42;7.68;;;8.30;92.10;;;;;;5017253;28;20088;-53
2021/03/11 12:45:32;;;;;;;44.60;7.78;;;8.40;92.50;;;;;;5014693;28;20651;-59
2021/03/11 12:47:58;;;;;;;40.28;8.43;;;8.40;92.00;;;;;;5019157;28;20049;-52
2021/03/11 12:50:24;;;;;;;41.67;7.60;;;8.50;91.40;;;;;;5017737;28;20116;-51
2021/03/11 12:52:51;;;;;;;32.75;6.80;;;8.50;91.80;;;;;;5012204;28;20415;-54
2021/03/11 12:55:17;;;;;;;40.25;7.90;;;8.60;91.40;;;;;;5000139;28;20125;-55
2021/03/11 12:57:45;;;;;;;42.65;7.80;;;8.60;91.60;;;;;;4992175;28;20045;-53
2021/03/11 13:00:13;;;;;;;34.30;9.02;;;8.70;91.30;;;;;;5011436;28;20049;-57